createdAt,value
2022-08-11T00:01:10.312Z,32.50
2022-08-11T00:06:30.547Z,32.50
2022-08-11T00:11:50.610Z,32.50
2022-08-11T00:17:10.755Z,32.50
2022-08-11T00:22:31.008Z,32.50
2022-08-11T00:27:51.160Z,32.60
2022-08-11T00:33:11.312Z,32.50
2022-08-11T00:38:31.428Z,32.60
2022-08-11T00:43:51.486Z,32.60
2022-08-11T00:49:11.942Z,32.60
2022-08-11T00:54:32.879Z,32.60
2022-08-11T00:59:53.455Z,32.60
2022-08-11T01:05:13.465Z,32.60
2022-08-11T01:10:33.566Z,32.60
2022-08-11T01:15:55.964Z,32.60
2022-08-11T01:21:17.815Z,32.60
2022-08-11T01:26:37.985Z,32.70
2022-08-11T01:31:58.050Z,32.70
2022-08-11T01:37:18.234Z,32.70
2022-08-11T01:42:38.431Z,32.70
2022-08-11T01:47:58.489Z,32.70
2022-08-11T01:53:18.487Z,32.80
2022-08-11T01:58:43.217Z,32.80
2022-08-11T02:04:04.266Z,32.80
2022-08-11T02:09:24.471Z,32.70
2022-08-11T02:14:53.610Z,32.80
2022-08-11T02:20:24.842Z,32.80
2022-08-11T02:25:44.945Z,32.80
2022-08-11T02:31:04.994Z,32.80
2022-08-11T02:36:29.173Z,32.80
2022-08-11T02:41:49.169Z,32.80
2022-08-11T02:47:09.459Z,32.80
2022-08-11T02:52:29.495Z,32.80
2022-08-11T02:57:50.685Z,32.90
2022-08-11T03:03:12.150Z,33.00
2022-08-11T03:08:34.262Z,32.90
2022-08-11T03:13:54.478Z,33.00
2022-08-11T03:19:14.723Z,32.80
2022-08-11T03:24:34.727Z,33.00
2022-08-11T03:29:54.952Z,32.90
2022-08-11T03:35:21.318Z,32.90
2022-08-11T03:40:41.616Z,33.00
2022-08-11T03:46:01.778Z,33.00
2022-08-11T03:51:21.933Z,33.00
2022-08-11T03:56:42.096Z,33.00
2022-08-11T04:02:02.252Z,33.00
2022-08-11T04:07:22.362Z,33.00
2022-08-11T04:12:47.479Z,33.00
2022-08-11T04:18:07.494Z,33.00
2022-08-11T04:24:36.059Z,33.00
2022-08-11T04:29:09.425Z,33.00
2022-08-11T04:34:30.175Z,33.10
2022-08-11T04:39:50.300Z,33.10
2022-08-11T04:45:10.369Z,33.10
2022-08-11T04:50:30.452Z,33.10
2022-08-11T04:55:50.490Z,33.10
2022-08-11T05:01:10.698Z,33.10
2022-08-11T05:06:30.807Z,33.10
2022-08-11T05:11:50.852Z,33.10
2022-08-11T05:17:17.928Z,33.10
2022-08-11T05:22:38.253Z,33.10
2022-08-11T05:27:58.169Z,33.70
2022-08-11T05:33:18.422Z,33.10
2022-08-11T05:38:38.607Z,33.10
2022-08-11T05:44:20.057Z,33.10
2022-08-11T05:49:39.066Z,33.10
2022-08-11T05:54:59.186Z,33.10
2022-08-11T06:00:19.409Z,33.10
2022-08-11T06:05:43.447Z,33.10
2022-08-11T06:11:04.346Z,33.10
2022-08-11T06:16:24.531Z,33.10
2022-08-11T06:21:44.646Z,33.10
2022-08-11T06:27:13.481Z,33.00
2022-08-11T06:32:34.034Z,33.10
2022-08-11T06:37:58.800Z,33.10
2022-08-11T06:43:19.601Z,33.00
2022-08-11T06:48:39.711Z,33.00
2022-08-11T06:54:04.413Z,33.10
2022-08-11T06:59:25.422Z,33.00
2022-08-11T07:04:45.530Z,33.10
2022-08-11T07:10:05.697Z,33.00
2022-08-11T07:15:25.844Z,33.10
2022-08-11T07:21:05.732Z,33.00
2022-08-11T07:26:46.031Z,33.00
2022-08-11T07:32:06.120Z,33.00
2022-08-11T07:37:26.274Z,32.90
2022-08-11T07:42:46.461Z,33.10
2022-08-11T07:48:06.721Z,33.10
2022-08-11T07:53:26.915Z,33.00
2022-08-11T07:58:53.124Z,33.00
2022-08-11T08:04:13.689Z,33.00
2022-08-11T08:09:33.775Z,33.00
2022-08-11T08:14:53.832Z,33.00
2022-08-11T08:20:14.010Z,33.00
2022-08-11T08:25:33.916Z,33.00
2022-08-11T08:30:54.171Z,33.00
2022-08-11T08:36:14.278Z,33.00
2022-08-11T08:41:34.362Z,33.00
2022-08-11T08:46:54.486Z,33.00
2022-08-11T08:52:21.064Z,33.10
2022-08-11T08:57:45.554Z,33.00
2022-08-11T09:03:35.941Z,33.00
2022-08-11T09:08:45.868Z,33.00
2022-08-11T09:14:09.354Z,33.10
2022-08-11T09:19:33.226Z,33.00
2022-08-11T09:24:53.336Z,33.10
2022-08-11T09:30:13.565Z,33.00
2022-08-11T09:35:33.758Z,33.00
2022-08-11T09:40:56.270Z,33.00
2022-08-11T09:46:17.029Z,33.00
2022-08-11T09:51:37.325Z,33.00
2022-08-11T09:57:05.213Z,33.00
2022-08-11T10:02:25.657Z,33.00
2022-08-11T10:07:45.957Z,33.00
2022-08-11T10:13:06.137Z,33.00
2022-08-11T10:18:46.386Z,33.10
2022-08-11T10:24:06.593Z,33.10
2022-08-11T10:29:26.699Z,33.00
2022-08-11T10:34:58.007Z,33.00
2022-08-11T10:40:18.028Z,33.00
2022-08-11T10:45:38.147Z,33.00
2022-08-11T10:50:58.212Z,33.00
2022-08-11T10:56:18.388Z,33.00
2022-08-11T11:01:38.473Z,33.50
2022-08-11T11:06:58.677Z,33.00
2022-08-11T11:12:18.872Z,33.00
2022-08-11T11:17:38.960Z,32.90
2022-08-11T11:22:59.164Z,33.00
2022-08-11T11:28:19.224Z,33.00
2022-08-11T11:34:06.155Z,33.00
2022-08-11T11:39:19.773Z,32.90
2022-08-11T11:44:39.833Z,33.00
2022-08-11T11:49:59.812Z,33.00
2022-08-11T11:55:19.890Z,33.00
2022-08-11T12:00:43.460Z,33.00
2022-08-11T12:06:03.619Z,32.90
2022-08-11T12:11:23.829Z,33.00
2022-08-11T12:16:43.968Z,33.00
2022-08-11T12:22:04.192Z,32.90
2022-08-11T12:27:25.364Z,33.00
2022-08-11T12:32:46.090Z,33.00
2022-08-11T12:38:10.838Z,33.00
2022-08-11T12:43:37.772Z,33.00
2022-08-11T12:49:02.016Z,33.00
2022-08-11T12:54:23.290Z,33.00
2022-08-11T12:59:43.273Z,33.10
2022-08-11T13:05:03.326Z,33.00
2022-08-11T13:15:48.627Z,33.10
2022-08-11T13:21:08.759Z,33.10
2022-08-11T13:26:43.566Z,33.10
2022-08-11T13:32:08.947Z,33.10
2022-08-11T13:38:18.458Z,33.10
2022-08-11T13:43:08.835Z,33.10
2022-08-11T13:48:29.007Z,33.20
2022-08-11T13:53:49.031Z,33.20
2022-08-11T13:59:09.197Z,33.20
2022-08-11T14:04:32.215Z,33.10
2022-08-11T14:09:55.599Z,33.10
2022-08-11T14:15:16.745Z,33.00
2022-08-11T14:20:39.070Z,33.10
2022-08-11T14:26:02.283Z,33.10
2022-08-11T14:31:22.630Z,33.10
2022-08-11T14:36:42.819Z,33.30
2022-08-11T14:42:11.356Z,33.50
2022-08-11T14:47:33.162Z,33.40
2022-08-11T14:52:53.284Z,33.40
2022-08-11T14:58:13.457Z,33.70
2022-08-11T15:03:33.833Z,33.90
2022-08-11T15:08:53.910Z,33.80
2022-08-11T15:14:14.050Z,34.70
2022-08-11T15:19:40.446Z,34.30
2022-08-11T15:25:01.301Z,34.20
2022-08-11T15:30:33.276Z,34.10
2022-08-11T15:35:54.254Z,34.10
2022-08-11T15:41:14.189Z,34.20
2022-08-11T15:46:34.272Z,34.20
2022-08-11T15:51:54.424Z,34.10
2022-08-11T15:57:14.675Z,34.10
2022-08-11T16:02:35.981Z,34.20
2022-08-11T16:07:55.875Z,35.30
2022-08-11T16:13:16.546Z,35.30
2022-08-11T16:18:36.659Z,35.10
2022-08-11T16:23:56.826Z,35.00
2022-08-11T16:29:16.936Z,34.90
2022-08-11T16:34:37.010Z,34.80
2022-08-11T16:39:57.376Z,34.70
2022-08-11T16:45:17.422Z,34.60
2022-08-11T16:50:37.509Z,34.50
2022-08-11T16:55:57.547Z,34.40
2022-08-11T17:01:17.991Z,34.40
2022-08-11T17:06:38.315Z,34.30
2022-08-11T17:11:58.227Z,34.20
2022-08-11T17:17:18.369Z,34.10
2022-08-11T17:22:38.673Z,34.00
2022-08-11T17:27:58.703Z,33.90
2022-08-11T17:33:18.917Z,33.80
2022-08-11T17:38:38.991Z,33.70
2022-08-11T17:43:59.186Z,33.70
2022-08-11T17:49:19.287Z,33.30
2022-08-11T17:54:39.472Z,33.20
2022-08-11T18:00:01.708Z,33.00
2022-08-11T18:05:21.821Z,33.00
2022-08-11T18:10:41.880Z,32.90
2022-08-11T18:16:02.073Z,29.00
2022-08-11T18:21:22.172Z,27.30
2022-08-11T18:26:42.462Z,26.80
2022-08-11T18:32:02.515Z,26.60
2022-08-11T18:37:26.033Z,26.20
2022-08-11T18:42:48.944Z,25.70
2022-08-11T18:48:11.306Z,26.10
2022-08-11T18:53:31.717Z,26.60
2022-08-11T18:58:51.813Z,26.90
2022-08-11T19:04:17.234Z,27.30
2022-08-11T19:09:39.160Z,27.50
2022-08-11T19:14:59.215Z,27.20
2022-08-11T19:20:19.302Z,27.30
2022-08-11T19:25:39.389Z,27.20
2022-08-11T19:30:59.574Z,27.10
2022-08-11T19:36:19.576Z,27.30
2022-08-11T19:41:57.615Z,27.30
2022-08-11T19:47:18.023Z,27.60
2022-08-11T19:52:38.414Z,27.30
2022-08-11T19:57:59.083Z,27.60
2022-08-11T20:03:19.019Z,27.60
2022-08-11T20:08:39.179Z,27.70
2022-08-11T20:13:59.427Z,27.80
2022-08-11T20:19:19.603Z,28.10
2022-08-11T20:24:45.692Z,28.70
2022-08-11T20:30:05.860Z,28.90
2022-08-11T20:35:26.017Z,29.20
2022-08-11T20:40:46.195Z,29.50
2022-08-11T20:46:06.243Z,29.60
2022-08-11T20:51:26.540Z,29.80
2022-08-11T20:56:46.635Z,29.80
2022-08-11T21:02:09.399Z,30.00
2022-08-11T21:07:30.395Z,30.00
2022-08-11T21:12:55.217Z,30.10
2022-08-11T21:18:28.558Z,30.20
2022-08-11T21:23:49.620Z,30.40
2022-08-11T21:29:09.748Z,30.60
2022-08-11T21:34:29.827Z,30.60
2022-08-11T21:39:49.867Z,30.70
2022-08-11T21:45:09.965Z,30.80
2022-08-11T21:50:30.106Z,30.90
2022-08-11T21:55:50.158Z,31.00
2022-08-11T22:01:10.290Z,31.00
2022-08-11T22:06:30.357Z,31.10
2022-08-11T22:11:50.615Z,31.20
2022-08-11T22:17:30.843Z,31.20
2022-08-11T22:22:53.044Z,31.30
2022-08-11T22:28:13.674Z,31.30
2022-08-11T22:33:33.864Z,31.30
2022-08-11T22:38:54.035Z,31.40
2022-08-11T22:44:14.333Z,31.40
2022-08-11T22:49:56.169Z,31.50
2022-08-11T22:55:14.632Z,31.60
2022-08-11T23:00:34.789Z,31.60
2022-08-11T23:05:54.920Z,31.70
2022-08-11T23:11:15.115Z,31.60
2022-08-11T23:16:35.184Z,31.90
2022-08-11T23:21:55.408Z,31.90
2022-08-11T23:27:15.427Z,32.00
2022-08-11T23:32:35.613Z,32.00
2022-08-11T23:37:55.792Z,32.00
2022-08-11T23:43:20.074Z,32.10
2022-08-11T23:48:40.251Z,32.20
2022-08-11T23:54:00.360Z,32.20
2022-08-11T23:59:28.067Z,32.20
